Time;durP1;ratioP1;P1;durP2;ratioP2;P2;SDS_P1;SDS_P2;PMS_P1;PMS_P2;Temp;Humidity;BMP_temperature;BMP_pressure;BME280_temperature;BME280_humidity;BME280_pressure;Samples;Min_cycle;Max_cycle;Signal;HPM_P1;HPM_P2
2022/01/29 00:01:16;;;;;;;1.62;0.30;;;;;;;3.77;54.22;100892.75;4322070;33;33007;-90
2022/01/29 00:03:44;;;;;;;0.93;0.30;;;;;;;3.71;54.27;100897.09;4334369;33;34475;-90
2022/01/29 00:06:16;;;;;;;1.70;0.25;;;;;;;3.98;53.57;100901.47;4333858;33;34274;-89
2022/01/29 00:08:44;;;;;;;0.35;0.30;;;;;;;3.92;53.67;100907.56;4334131;33;34529;-91
2022/01/29 00:11:16;;;;;;;3.30;0.50;;;;;;;3.89;53.43;100912.78;4346948;32;33455;-91
2022/01/29 00:13:43;;;;;;;1.70;0.37;;;;;;;3.95;52.95;100904.09;4333163;33;33877;-90
2022/01/29 00:16:12;;;;;;;0.10;0.10;;;;;;;4.15;52.41;100904.97;4322087;33;32082;-91
2022/01/29 00:18:40;;;;;;;7.75;0.95;;;;;;;4.13;52.26;100909.34;4332882;33;32214;-91
2022/01/29 00:21:08;;;;;;;1.70;0.60;;;;;;;4.16;52.20;100911.94;4334038;33;32995;-91
2022/01/29 00:23:37;;;;;;;3.65;1.15;;;;;;;3.76;53.04;100917.12;4321863;33;32836;-90
2022/01/29 00:26:06;;;;;;;0.60;0.43;;;;;;;4.11;52.42;100918.91;4346418;32;31913;-91
2022/01/29 00:28:35;;;;;;;1.30;0.28;;;;;;;4.09;52.96;100932.00;4346377;32;33268;-91
2022/01/29 00:31:03;;;;;;;1.62;0.60;;;;;;;3.71;54.44;100920.63;4346172;32;33635;-90
2022/01/29 00:33:32;;;;;;;2.45;0.32;;;;;;;3.79;54.33;100922.34;4358567;32;33669;-91
2022/01/29 00:36:01;;;;;;;0.70;0.60;;;;;;;4.11;53.57;100919.78;4334249;33;32352;-90
2022/01/29 00:38:30;;;;;;;0.98;0.30;;;;;;;3.82;54.32;100922.38;4346171;33;32685;-90
2022/01/29 00:40:57;;;;;;;1.50;0.50;;;;;;;3.63;55.40;100933.66;4333959;33;33072;-91
2022/01/29 00:43:25;;;;;;;0.85;0.37;;;;;;;3.79;54.92;100934.53;4346272;32;33664;-90
2022/01/29 00:45:54;;;;;;;3.37;0.60;;;;;;;3.91;54.76;100937.19;4358152;32;32465;-91
2022/01/29 00:48:23;;;;;;;4.87;0.68;;;;;;;4.00;54.99;100939.81;4345747;33;33122;-89
2022/01/29 00:50:51;;;;;;;2.15;0.47;;;;;;;4.08;55.03;100930.25;4321303;33;34263;-89
2022/01/29 00:53:19;;;;;;;1.83;0.45;;;;;;;3.81;56.31;100930.22;4357536;32;33302;-91
2022/01/29 00:55:48;;;;;;;2.55;0.60;;;;;;;3.62;57.28;100929.31;4333755;33;33361;-90
2022/01/29 00:58:15;;;;;;;0.70;0.40;;;;;;;3.67;57.05;100943.25;4355938;32;33896;-89
2022/01/29 01:00:44;;;;;;;2.22;0.68;;;;;;;3.87;56.85;100951.13;4333845;33;33441;-91
2022/01/29 01:03:17;;;;;;;4.30;1.08;;;;;;;3.84;57.03;100940.66;4322508;33;33697;-92
2022/01/29 01:05:46;;;;;;;2.55;0.80;;;;;;;3.92;56.87;100948.50;4346324;32;33396;-91
2022/01/29 01:08:34;;;;;;;1.12;0.45;;;;;;;3.88;57.20;100938.91;4348276;32;33192;-91
2022/01/29 01:11:04;;;;;;;2.10;0.47;;;;;;;3.38;58.57;100961.44;4345824;32;32925;-90
2022/01/29 01:13:32;;;;;;;4.10;0.85;;;;;;;3.27;58.73;100953.53;4345945;32;32539;-90
2022/01/29 01:16:00;;;;;;;1.58;0.82;;;;;;;3.39;58.38;100963.16;4321464;33;32436;-89
2022/01/29 01:18:29;;;;;;;7.57;0.90;;;;;;;3.44;58.45;100953.59;4343693;32;34287;-89
2022/01/29 01:20:56;;;;;;;3.62;0.85;;;;;;;3.44;58.49;100965.78;4345377;32;32824;-89
2022/01/29 01:23:24;;;;;;;6.43;0.70;;;;;;;3.48;58.38;100962.34;4344940;32;33261;-89
2022/01/29 01:25:52;;;;;;;2.67;0.80;;;;;;;3.57;58.34;100972.81;4320991;33;31882;-89
2022/01/29 01:28:20;;;;;;;4.65;1.20;;;;;;;3.38;58.97;100971.00;4335079;33;33885;-89
2022/01/29 01:30:50;;;;;;;2.58;0.65;;;;;;;3.56;58.49;100973.66;4335453;33;33912;-89
2022/01/29 01:33:18;;;;;;;4.45;0.68;;;;;;;3.80;57.63;100971.16;4359259;32;33644;-92
2022/01/29 01:36:05;;;;;;;2.15;0.62;;;;;;;3.72;57.96;100980.69;4381092;32;32778;-92
2022/01/29 01:39:04;;;;;;;1.80;0.68;;;;;;;3.47;58.69;100971.91;4366681;32;34523;-92
2022/01/29 01:41:53;;;;;;;6.80;1.08;;;;;;;3.55;58.52;100969.31;4386034;32;33270;-90
2022/01/29 01:45:01;;;;;;;2.60;0.70;;;;;;;3.44;58.92;100955.34;4408563;32;32579;-90
2022/01/29 01:47:29;;;;;;;3.45;1.30;;;;;;;3.38;58.90;100960.56;4401679;32;32845;-90
2022/01/29 01:50:17;;;;;;;2.72;0.98;;;;;;;3.09;59.16;100958.69;4398057;32;32541;-92
2022/01/29 01:53:01;;;;;;;2.58;0.88;;;;;;;2.91;59.88;100961.19;4397673;32;33828;-91
2022/01/29 01:56:00;;;;;;;2.83;0.90;;;;;;;3.47;58.09;100960.59;4346803;32;33228;-92
2022/01/29 01:58:48;;;;;;;5.80;1.15;;;;;;;3.24;57.91;100952.66;4356576;32;32409;-90
2022/01/29 02:01:45;;;;;;;1.65;0.85;;;;;;;3.27;57.75;100950.91;4355779;32;32704;-91
2022/01/29 02:04:42;;;;;;;3.15;0.73;;;;;;;3.21;57.91;100937.84;4376172;32;33806;-91
2022/01/29 02:07:10;;;;;;;3.67;0.80;;;;;;;3.17;57.26;100936.09;4392068;32;32988;-91
2022/01/29 02:09:47;;;;;;;3.50;1.00;;;;;;;3.22;56.79;100941.31;4394257;32;32889;-91
2022/01/29 02:12:14;;;;;;;5.18;0.98;;;;;;;3.03;56.92;100936.00;4366667;32;33177;-92
2022/01/29 02:15:04;;;;;;;2.65;0.70;;;;;;;2.90;56.75;100954.22;4381325;32;33017;-91
2022/01/29 02:17:50;;;;;;;7.37;0.80;;;;;;;2.98;56.65;100944.69;4417633;32;32760;-88
2022/01/29 02:20:20;;;;;;;2.25;0.70;;;;;;;3.21;56.13;100950.91;4391627;32;32540;-89
2022/01/29 02:22:48;;;;;;;2.60;0.60;;;;;;;3.03;55.69;100959.50;4409858;32;32560;-90
2022/01/29 02:25:28;;;;;;;3.35;0.90;;;;;;;3.13;55.67;100955.19;4379711;32;33461;-90
2022/01/29 02:28:01;;;;;;;0.77;0.60;;;;;;;3.14;55.76;100956.97;4405129;32;32509;-88
2022/01/29 02:30:31;;;;;;;0.73;0.57;;;;;;;3.18;55.29;100961.34;4384991;32;32236;-89
2022/01/29 02:33:04;;;;;;;1.42;0.60;;;;;;;3.47;53.65;100952.75;4384534;32;33197;-90
2022/01/29 02:35:33;;;;;;;2.97;0.95;;;;;;;3.53;53.10;100958.87;4399545;32;32926;-90
2022/01/29 02:38:01;;;;;;;4.00;0.50;;;;;;;3.45;53.37;100957.09;4399489;32;32666;-91
2022/01/29 02:40:34;;;;;;;1.95;0.50;;;;;;;3.76;53.11;100958.94;4386062;32;31602;-92
2022/01/29 02:43:21;;;;;;;1.45;0.65;;;;;;;3.57;53.64;100954.53;4398983;32;32300;-91
2022/01/29 02:45:52;;;;;;;2.30;0.60;;;;;;;3.65;53.40;100957.16;4397047;32;32977;-90
2022/01/29 02:48:22;;;;;;;0.62;0.47;;;;;;;3.61;52.98;100953.69;4392351;32;32671;-90
2022/01/29 02:50:50;;;;;;;2.97;0.90;;;;;;;3.54;53.77;100967.56;4400051;32;32959;-91
2022/01/29 02:53:18;;;;;;;3.28;0.65;;;;;;;3.59;53.58;100968.47;4385454;32;33216;-90
2022/01/29 02:55:47;;;;;;;1.70;0.60;;;;;;;3.71;53.09;100962.41;4398552;32;33206;-90
2022/01/29 02:58:14;;;;;;;4.95;0.65;;;;;;;3.33;54.49;100968.38;4400184;32;33717;-89
2022/01/29 03:00:42;;;;;;;3.40;0.80;;;;;;;3.66;53.46;100974.59;4384494;32;32513;-88
2022/01/29 03:03:11;;;;;;;1.20;0.60;;;;;;;3.80;52.73;100971.16;4384471;32;33797;-88
2022/01/29 03:05:38;;;;;;;3.10;0.90;;;;;;;4.06;51.53;100967.69;4385782;32;32512;-88
2022/01/29 03:08:06;;;;;;;1.20;0.40;;;;;;;3.98;51.85;100961.59;4384131;32;33882;-88
2022/01/29 03:10:34;;;;;;;3.17;0.62;;;;;;;3.55;52.78;100974.53;4383969;32;33722;-89
2022/01/29 03:13:02;;;;;;;1.27;0.60;;;;;;;3.71;51.97;100965.91;4398983;32;33241;-89
2022/01/29 03:15:30;;;;;;;2.47;0.98;;;;;;;3.66;51.97;100962.41;4385236;32;32980;-89
2022/01/29 03:17:58;;;;;;;16.85;1.08;;;;;;;3.91;51.11;100973.78;4396989;32;32719;-89
2022/01/29 03:20:25;;;;;;;1.10;0.70;;;;;;;3.52;52.01;100978.03;4383278;32;32696;-89
2022/01/29 03:22:54;;;;;;;2.10;0.60;;;;;;;3.61;51.66;100990.25;4383949;32;32060;-89
2022/01/29 03:25:22;;;;;;;4.65;0.80;;;;;;;3.65;51.71;100981.53;4385981;32;33531;-89
2022/01/29 03:27:50;;;;;;;3.45;0.70;;;;;;;3.69;51.00;100993.72;4397527;32;32719;-89
2022/01/29 03:30:18;;;;;;;1.58;0.60;;;;;;;3.62;50.56;100994.59;4399257;32;35254;-89
2022/01/29 03:32:46;;;;;;;1.58;0.60;;;;;;;3.39;51.08;100997.09;4397685;32;32470;-89
2022/01/29 03:35:16;;;;;;;4.03;0.80;;;;;;;3.70;49.63;100998.09;4398053;32;33939;-89
2022/01/29 03:37:43;;;;;;;1.35;0.80;;;;;;;3.54;50.30;101009.34;4397442;32;33594;-89
2022/01/29 03:40:11;;;;;;;2.50;0.47;;;;;;;4.05;48.58;101003.44;4385852;32;33474;-89
2022/01/29 03:42:45;;;;;;;3.33;0.45;;;;;;;3.94;48.88;101004.25;4394440;32;32914;-89
2022/01/29 03:45:15;;;;;;;1.05;0.40;;;;;;;3.98;48.63;101000.78;4398962;32;33191;-89
2022/01/29 03:47:42;;;;;;;7.25;0.70;;;;;;;3.88;49.30;101001.62;4399561;32;33043;-90
2022/01/29 03:50:10;;;;;;;0.55;0.50;;;;;;;4.06;48.46;100993.84;4384190;32;33676;-90
2022/01/29 03:52:39;;;;;;;3.10;0.50;;;;;;;3.98;47.94;100985.97;4397543;32;33474;-89
2022/01/29 03:55:07;;;;;;;2.47;0.60;;;;;;;3.82;48.31;100985.06;4387437;32;33210;-89
2022/01/29 03:57:35;;;;;;;1.98;0.47;;;;;;;3.68;47.91;100980.69;4396615;32;32079;-91
2022/01/29 04:00:05;;;;;;;2.28;0.60;;;;;;;3.67;48.21;100987.66;4387115;32;32446;-91
2022/01/29 04:02:33;;;;;;;2.50;0.70;;;;;;;3.62;48.48;100991.97;4401605;32;32747;-91
2022/01/29 04:05:02;;;;;;;1.70;0.80;;;;;;;3.86;47.57;100996.41;4383264;32;33037;-90
2022/01/29 04:07:30;;;;;;;2.70;0.60;;;;;;;4.06;47.31;100996.44;4385808;32;33772;-90
2022/01/29 04:09:59;;;;;;;1.65;0.65;;;;;;;3.81;48.00;101005.97;4390533;32;33716;-91
2022/01/29 04:12:31;;;;;;;5.80;0.90;;;;;;;4.04;47.22;101006.03;4398984;32;33088;-91
2022/01/29 04:14:59;;;;;;;2.00;0.50;;;;;;;3.72;47.94;101013.78;4398806;32;33658;-91
2022/01/29 04:17:57;;;;;;;1.70;0.60;;;;;;;4.07;47.23;101001.66;4347984;32;32754;-90
2022/01/29 04:20:25;;;;;;;0.62;0.40;;;;;;;3.90;47.77;100995.56;4343852;32;32110;-89
2022/01/29 04:22:53;;;;;;;4.12;0.73;;;;;;;3.81;47.77;100995.53;4343425;32;32736;-92
2022/01/29 04:25:23;;;;;;;5.85;1.17;;;;;;;3.82;47.83;100994.66;4374461;32;32801;-92
2022/01/29 04:28:23;;;;;;;2.65;0.80;;;;;;;3.66;48.12;100987.66;4414329;32;32865;-92
2022/01/29 04:31:18;;;;;;;1.27;0.40;;;;;;;3.70;48.26;100985.03;4376769;32;31836;-92
2022/01/29 04:33:48;;;;;;;5.70;0.85;;;;;;;3.73;48.13;100990.25;4387478;32;33339;-91
2022/01/29 04:36:16;;;;;;;0.88;0.62;;;;;;;3.58;48.62;100980.66;4387130;32;33656;-89
2022/01/29 04:38:43;;;;;;;3.12;0.85;;;;;;;3.66;48.67;100966.75;4381856;32;33137;-90
2022/01/29 04:41:11;;;;;;;4.35;1.17;;;;;;;3.81;48.17;100972.87;4357428;32;32193;-89
2022/01/29 04:43:39;;;;;;;1.30;0.32;;;;;;;3.72;48.50;100972.84;4392339;32;32956;-89
2022/01/29 04:46:08;;;;;;;2.62;0.65;;;;;;;3.62;48.80;100984.16;4394650;32;34027;-89
2022/01/29 04:48:36;;;;;;;1.90;0.65;;;;;;;3.53;49.26;100981.50;4394352;32;34260;-89
2022/01/29 04:51:04;;;;;;;3.28;0.77;;;;;;;3.77;48.70;100975.47;4395065;32;33191;-89
2022/01/29 04:53:32;;;;;;;2.45;0.98;;;;;;;3.92;48.36;100974.66;4376185;32;32695;-89
2022/01/29 04:56:00;;;;;;;7.30;0.80;;;;;;;3.83;48.50;100976.34;4369707;32;32872;-89
2022/01/29 04:58:27;;;;;;;2.17;0.50;;;;;;;3.67;48.88;100971.97;4368412;32;33139;-89
2022/01/29 05:00:55;;;;;;;2.47;0.57;;;;;;;3.83;48.65;100970.25;4377322;32;32887;-88
2022/01/29 05:03:27;;;;;;;5.22;0.70;;;;;;;3.74;48.70;100971.09;4375170;32;32134;-89
2022/01/29 05:05:56;;;;;;;1.55;0.80;;;;;;;3.91;48.59;100979.00;4380589;32;34346;-89
2022/01/29 05:08:24;;;;;;;3.40;0.73;;;;;;;3.91;48.67;100978.12;4381891;32;32498;-89
2022/01/29 05:10:53;;;;;;;1.52;0.37;;;;;;;3.96;48.46;100979.87;4391153;32;32627;-91
2022/01/29 05:13:27;;;;;;;1.35;0.60;;;;;;;4.03;48.42;100983.38;4390739;32;33390;-90
2022/01/29 05:27:07;;;;;;;4.37;0.95;;;;;;;4.37;48.19;101008.72;4379261;32;33497;-91
2022/01/29 05:29:36;;;;;;;1.65;1.08;;;;;;;4.34;48.56;101006.09;4381193;32;33202;-91
2022/01/29 05:32:07;;;;;;;1.98;0.77;;;;;;;4.32;48.89;101012.16;4376491;32;33290;-90
2022/01/29 05:34:35;;;;;;;3.45;0.90;;;;;;;4.37;48.85;101013.94;4376516;32;33600;-91
2022/01/29 05:37:04;;;;;;;7.32;0.90;;;;;;;4.13;49.62;101013.91;4377181;32;32724;-90
2022/01/29 05:39:32;;;;;;;2.05;0.70;;;;;;;4.16;49.86;101010.41;4375232;32;33492;-88
2022/01/29 05:41:59;;;;;;;8.25;1.30;;;;;;;4.12;49.85;101001.69;4372851;32;33754;-88
2022/01/29 05:44:27;;;;;;;2.08;0.80;;;;;;;4.39;48.78;101011.31;4376558;32;33606;-88
2022/01/29 05:46:55;;;;;;;3.10;0.65;;;;;;;4.41;48.40;101013.91;4380576;32;33459;-88
2022/01/29 05:49:22;;;;;;;3.33;0.85;;;;;;;4.04;49.94;101008.66;4388449;32;32771;-90
2022/01/29 05:51:50;;;;;;;7.18;1.08;;;;;;;4.36;48.97;101013.91;4376178;32;34268;-91
2022/01/29 05:54:18;;;;;;;4.85;0.85;;;;;;;4.37;49.13;101010.47;4377594;32;32298;-91
2022/01/29 05:56:47;;;;;;;5.78;1.10;;;;;;;3.98;49.93;101019.94;4378936;32;32963;-90
2022/01/29 05:59:16;;;;;;;7.80;1.25;;;;;;;4.03;49.87;101030.41;4389485;32;34282;-89
2022/01/29 06:01:44;;;;;;;7.53;1.10;;;;;;;4.22;49.05;101036.56;4376726;32;32381;-89
2022/01/29 06:04:13;;;;;;;2.45;0.73;;;;;;;4.05;50.07;101033.91;4362432;32;33036;-90
2022/01/29 06:06:42;;;;;;;6.93;1.33;;;;;;;4.04;49.98;101042.62;4380249;32;32956;-91
2022/01/29 06:09:10;;;;;;;3.72;1.02;;;;;;;3.99;50.13;101040.00;4363820;32;32094;-90
2022/01/29 06:12:15;;;;;;;5.95;1.40;;;;;;;4.07;49.79;101048.72;4376963;32;32609;-90
2022/01/29 06:14:43;;;;;;;2.50;1.23;;;;;;;3.80;50.89;101049.53;4376240;32;33888;-90
2022/01/29 06:17:17;;;;;;;5.45;1.45;;;;;;;3.99;50.14;101049.59;4373299;32;31895;-90
2022/01/29 06:19:48;;;;;;;2.75;1.00;;;;;;;4.24;49.33;101051.38;4392658;32;32467;-90
2022/01/29 06:22:22;;;;;;;2.50;1.25;;;;;;;4.15;49.50;101053.97;4379850;32;33456;-91
2022/01/29 06:24:50;;;;;;;5.25;1.65;;;;;;;4.09;49.73;101051.34;4378989;32;32322;-91
2022/01/29 06:27:17;;;;;;;3.50;1.17;;;;;;;3.99;50.13;101050.47;4358820;32;33637;-90
2022/01/29 06:29:45;;;;;;;5.57;1.40;;;;;;;3.94;50.13;101051.28;4379418;32;33124;-89
2022/01/29 06:32:17;;;;;;;3.47;1.60;;;;;;;3.84;50.56;101047.78;4378434;32;33406;-90
2022/01/29 06:34:44;;;;;;;3.72;1.83;;;;;;;4.11;49.84;101052.22;4378462;32;34558;-90
2022/01/29 06:37:12;;;;;;;5.07;2.30;;;;;;;3.89;50.45;101053.00;4372603;32;35327;-90
2022/01/29 06:39:40;;;;;;;6.85;1.98;;;;;;;4.08;50.16;101050.50;4379406;32;31776;-90
2022/01/29 06:42:07;;;;;;;4.68;1.95;;;;;;;4.15;50.17;101056.59;4379946;32;32560;-90
2022/01/29 06:44:37;;;;;;;5.37;1.77;;;;;;;4.28;49.97;101053.16;4369805;32;34354;-90
2022/01/29 06:47:04;;;;;;;6.18;2.40;;;;;;;4.41;49.83;101034.84;4377616;32;33191;-90
2022/01/29 06:49:33;;;;;;;7.93;2.30;;;;;;;4.07;51.07;101053.06;4380697;32;32860;-90
2022/01/29 06:52:00;;;;;;;2.15;1.20;;;;;;;4.33;50.69;101048.78;4376543;32;32611;-90
2022/01/29 06:54:28;;;;;;;4.37;1.73;;;;;;;4.45;50.73;101039.22;4376231;32;32586;-90
2022/01/29 06:56:56;;;;;;;8.52;2.10;;;;;;;4.32;51.38;101039.22;4374949;32;33687;-91
2022/01/29 06:59:24;;;;;;;11.73;2.30;;;;;;;4.35;51.46;101049.66;4378498;32;34982;-89
2022/01/29 07:01:52;;;;;;;7.35;2.20;;;;;;;4.31;52.21;101053.13;4360304;32;32838;-90
2022/01/29 07:04:20;;;;;;;7.50;1.80;;;;;;;4.45;51.82;101060.13;4372472;32;32088;-90
2022/01/29 07:06:47;;;;;;;9.38;2.03;;;;;;;4.76;51.07;101064.53;4386125;32;33109;-90
2022/01/29 07:09:15;;;;;;;7.97;1.77;;;;;;;4.62;51.78;101055.81;4388318;32;34256;-89
2022/01/29 07:11:44;;;;;;;6.12;1.73;;;;;;;4.85;50.98;101061.91;4375578;32;33662;-90
2022/01/29 07:14:17;;;;;;;4.10;1.30;;;;;;;5.00;50.07;101052.31;4388237;32;33041;-90
2022/01/29 07:16:45;;;;;;;6.20;1.45;;;;;;;4.66;50.40;101054.94;4361893;32;34587;-90
2022/01/29 07:19:22;;;;;;;8.50;1.83;;;;;;;4.91;50.19;101055.81;4380629;32;32888;-90
2022/01/29 07:21:50;;;;;;;14.20;2.10;;;;;;;4.74;50.27;101063.63;4390795;32;33190;-89
2022/01/29 07:24:18;;;;;;;6.68;1.55;;;;;;;4.69;50.13;101060.16;4362165;32;32532;-90
2022/01/29 07:26:45;;;;;;;5.50;1.70;;;;;;;4.79;50.60;101066.25;4376332;32;33624;-90
2022/01/29 07:29:34;;;;;;;4.85;1.70;;;;;;;4.86;50.33;101068.88;4359087;32;32509;-90
2022/01/29 07:32:02;;;;;;;7.93;1.77;;;;;;;5.14;49.67;101071.50;4366005;32;31265;-90
2022/01/29 07:34:35;;;;;;;10.15;2.42;;;;;;;4.72;51.00;101075.88;4357630;32;32857;-90
2022/01/29 07:37:03;;;;;;;5.87;2.05;;;;;;;5.10;49.99;101078.47;4359411;32;32806;-89
2022/01/29 07:39:31;;;;;;;8.13;2.10;;;;;;;4.98;50.43;101078.47;4367243;32;33034;-90
2022/01/29 07:41:59;;;;;;;7.40;1.58;;;;;;;4.79;50.96;101077.59;4355820;32;32385;-91
2022/01/29 07:44:47;;;;;;;6.43;1.40;;;;;;;4.99;51.07;101066.28;4363967;32;33991;-90
2022/01/29 07:47:14;;;;;;;5.43;1.77;;;;;;;5.56;49.49;101067.03;4378243;32;32497;-90
2022/01/29 07:49:43;;;;;;;4.20;2.35;;;;;;;5.90;48.79;101073.91;4363855;32;33600;-90
2022/01/29 07:52:11;;;;;;;7.80;2.87;;;;;;;5.75;49.18;101070.47;4381762;32;32824;-91
2022/01/29 07:54:39;;;;;;;7.47;1.83;;;;;;;5.46;49.45;101070.53;4360113;32;34359;-91
2022/01/29 07:57:08;;;;;;;7.32;2.00;;;;;;;5.45;49.75;101068.81;4371450;32;32766;-91
2022/01/29 07:59:36;;;;;;;6.75;2.03;;;;;;;5.30;50.07;101065.34;4355539;32;32605;-90
2022/01/29 08:02:24;;;;;;;12.15;1.92;;;;;;;5.73;49.05;101074.84;4365305;32;32169;-90
2022/01/29 08:04:52;;;;;;;6.65;1.80;;;;;;;5.60;49.38;101079.22;4357993;32;33779;-90
2022/01/29 08:07:20;;;;;;;7.40;2.33;;;;;;;5.53;49.92;101072.28;4368258;32;33233;-90
2022/01/29 08:09:50;;;;;;;7.82;1.65;;;;;;;5.69;49.55;101078.34;4367150;32;32708;-90
2022/01/29 08:12:42;;;;;;;4.50;1.75;;;;;;;5.40;50.33;101080.16;4326167;32;32041;-89
2022/01/29 08:15:12;;;;;;;4.25;2.00;;;;;;;5.57;49.04;101074.03;4340979;32;33125;-89
2022/01/29 08:17:40;;;;;;;3.53;1.25;;;;;;;5.60;49.34;101079.22;4313872;32;32798;-86
2022/01/29 08:20:08;;;;;;;7.85;1.62;;;;;;;5.39;50.07;101082.78;4333317;32;34355;-85
2022/01/29 08:22:36;;;;;;;9.10;1.98;;;;;;;5.68;49.08;101072.22;4334251;32;33672;-89
2022/01/29 08:25:05;;;;;;;6.75;1.45;;;;;;;6.09;48.16;101076.47;4333900;32;35530;-86
2022/01/29 08:27:32;;;;;;;3.90;1.65;;;;;;;6.04;47.75;101071.25;4334820;32;33088;-86
2022/01/29 08:30:01;;;;;;;5.10;1.60;;;;;;;5.85;48.21;101078.28;4345588;32;32012;-85
2022/01/29 08:32:29;;;;;;;6.47;1.50;;;;;;;6.08;47.24;101077.37;4330834;32;31837;-88
2022/01/29 08:34:57;;;;;;;8.98;1.75;;;;;;;5.88;47.34;101075.62;4342280;32;33406;-88
2022/01/29 08:37:24;;;;;;;8.93;2.08;;;;;;;5.60;48.62;101076.63;4343703;32;32374;-88
2022/01/29 08:39:52;;;;;;;5.95;1.62;;;;;;;5.70;48.83;101086.22;4355047;32;33860;-88
2022/01/29 08:42:20;;;;;;;6.80;1.37;;;;;;;5.97;47.20;101079.12;4331762;32;32253;-88
2022/01/29 08:44:49;;;;;;;8.55;1.77;;;;;;;6.26;46.86;101072.00;4354364;32;32837;-88
2022/01/29 08:47:17;;;;;;;4.35;2.17;;;;;;;6.28;45.42;101075.50;4357329;32;34250;-88
2022/01/29 08:49:45;;;;;;;4.78;2.03;;;;;;;6.29;46.36;101081.59;4344850;32;33527;-88
2022/01/29 08:52:13;;;;;;;7.80;1.65;;;;;;;6.29;46.31;101074.59;4354568;32;33654;-88
2022/01/29 08:54:40;;;;;;;4.80;1.60;;;;;;;6.19;46.12;101083.41;4356438;32;33955;-88
2022/01/29 08:57:08;;;;;;;6.12;1.33;;;;;;;6.41;44.70;101084.16;4357644;32;33845;-88
2022/01/29 08:59:36;;;;;;;6.32;1.40;;;;;;;6.66;43.82;101087.50;4332824;32;32746;-88
2022/01/29 09:02:04;;;;;;;10.77;2.03;;;;;;;7.05;42.79;101083.69;4333809;32;33594;-88
2022/01/29 09:04:32;;;;;;;7.72;1.73;;;;;;;6.76;43.49;101097.03;4356658;32;32755;-88
2022/01/29 09:07:00;;;;;;;5.78;2.55;;;;;;;6.82;43.68;101094.37;4355064;32;33300;-88
2022/01/29 09:09:27;;;;;;;14.18;2.55;;;;;;;6.67;43.16;101091.84;4340573;32;33986;-88
2022/01/29 09:12:01;;;;;;;;;;;;;;;7.27;41.79;101075.62;4329043;33;32173;-88
2022/01/29 09:14:28;;;;;;;4.95;1.70;;;;;;;7.03;41.40;101081.97;4327340;33;31978;-88
2022/01/29 09:16:56;;;;;;;7.00;1.65;;;;;;;7.10;40.61;101086.25;4330490;33;32962;-88
2022/01/29 09:19:24;;;;;;;4.55;1.67;;;;;;;7.05;40.91;101085.44;4328362;33;33738;-88
2022/01/29 09:21:51;;;;;;;7.43;2.20;;;;;;;7.40;39.80;101085.94;4337086;33;33359;-88
2022/01/29 09:24:19;;;;;;;5.20;1.48;;;;;;;7.34;38.91;101087.78;4342755;33;33345;-89
2022/01/29 09:26:47;;;;;;;3.42;0.98;;;;;;;7.96;38.31;101081.81;4330644;33;33934;-88
2022/01/29 09:29:15;;;;;;;4.50;1.48;;;;;;;7.74;37.56;101080.38;4317864;33;31775;-88
2022/01/29 09:31:42;;;;;;;1.87;1.08;;;;;;;7.44;38.29;101073.66;4331770;33;33723;-88
2022/01/29 09:34:10;;;;;;;5.35;0.93;;;;;;;7.45;38.39;101072.78;4340315;33;33236;-88
2022/01/29 09:36:38;;;;;;;3.47;0.85;;;;;;;7.63;38.39;101072.56;4341752;32;33476;-87
2022/01/29 09:39:05;;;;;;;2.70;1.00;;;;;;;8.09;37.42;101068.53;4316471;33;33477;-87
2022/01/29 09:41:37;;;;;;;0.88;0.80;;;;;;;8.18;37.38;101063.13;4329107;33;32332;-88
2022/01/29 09:44:05;;;;;;;7.90;1.40;;;;;;;8.01;38.00;101065.13;4336702;33;32902;-88
2022/01/29 09:46:33;;;;;;;3.37;1.48;;;;;;;8.09;37.54;101063.25;4318332;33;32654;-88
2022/01/29 09:49:00;;;;;;;10.52;1.70;;;;;;;8.06;38.32;101063.28;4340627;33;32765;-87
2022/01/29 09:51:30;;;;;;;7.03;1.65;;;;;;;8.04;39.74;101057.19;4338162;33;32479;-87
2022/01/29 09:53:58;;;;;;;3.60;1.75;;;;;;;8.35;38.78;101033.94;4340674;33;33759;-88
2022/01/29 09:56:28;;;;;;;6.10;1.62;;;;;;;8.75;38.53;101033.37;4336009;33;32802;-87
2022/01/29 09:58:55;;;;;;;2.95;1.35;;;;;;;8.69;39.17;101024.69;4332579;33;34311;-87
2022/01/29 10:01:23;;;;;;;9.73;1.80;;;;;;;8.61;39.67;101025.69;4322923;33;33418;-87
2022/01/29 10:04:03;;;;;;;5.70;1.15;;;;;;;8.68;40.15;101019.41;4321514;33;33630;-87
2022/01/29 10:06:31;;;;;;;7.22;1.50;;;;;;;8.79;39.52;101019.25;4321624;33;33941;-86
2022/01/29 10:09:01;;;;;;;8.60;1.95;;;;;;;8.66;40.66;101022.06;4331496;33;32772;-87
2022/01/29 10:11:30;;;;;;;6.43;2.58;;;;;;;8.79;39.77;101014.00;4314339;33;32083;-86
2022/01/29 10:14:00;;;;;;;8.98;2.60;;;;;;;8.89;39.37;101018.19;4310699;33;34565;-87
2022/01/29 10:16:30;;;;;;;7.90;2.10;;;;;;;8.36;41.30;101020.81;4331220;33;34537;-87
2022/01/29 10:19:03;;;;;;;5.65;2.03;;;;;;;8.70;40.25;101010.59;4316840;33;32225;-87
2022/01/29 10:21:45;;;;;;;7.93;2.37;;;;;;;8.52;41.25;101010.03;4317275;33;32818;-87
2022/01/29 10:24:16;;;;;;;8.15;1.90;;;;;;;8.22;41.68;101012.22;4327967;33;33810;-86
2022/01/29 10:26:46;;;;;;;9.15;2.87;;;;;;;8.54;40.86;101003.84;4329594;33;32711;-87
2022/01/29 10:29:23;;;;;;;7.90;2.28;;;;;;;8.08;42.36;101003.66;4337447;33;33515;-86
2022/01/29 10:31:57;;;;;;;7.90;2.45;;;;;;;8.48;41.46;101005.72;4324776;33;32447;-86
2022/01/29 10:34:31;;;;;;;8.07;2.42;;;;;;;8.41;41.71;101010.22;4336224;33;33643;-87
2022/01/29 10:37:14;;;;;;;6.18;1.87;;;;;;;8.37;41.52;101006.75;4325190;33;33876;-87
2022/01/29 10:40:24;;;;;;;7.37;1.60;;;;;;;7.83;43.04;101004.00;4318797;33;32303;-86
2022/01/29 10:42:51;;;;;;;9.45;1.75;;;;;;;7.86;42.88;101006.56;4305725;33;34047;-87
2022/01/29 10:45:33;;;;;;;9.77;1.83;;;;;;;7.42;43.89;101000.09;4320720;33;32494;-86
2022/01/29 10:48:04;;;;;;;14.35;2.45;;;;;;;7.55;43.41;100998.22;4327246;33;33964;-87
2022/01/29 10:50:33;;;;;;;9.37;3.20;;;;;;;7.86;43.83;100988.16;4335038;33;33848;-86
2022/01/29 10:53:26;;;;;;;6.12;1.98;;;;;;;7.93;43.22;100995.09;4329107;33;32713;-86
2022/01/29 10:55:59;;;;;;;5.25;1.92;;;;;;;8.23;43.07;100987.62;4328455;33;33520;-87
2022/01/29 10:58:27;;;;;;;7.18;2.17;;;;;;;8.26;42.95;100984.97;4325370;33;33425;-87
2022/01/29 11:01:30;;;;;;;8.02;2.45;;;;;;;8.27;43.15;100983.22;4339516;33;33597;-87
2022/01/29 11:03:58;;;;;;;7.87;2.08;;;;;;;7.94;43.82;100981.03;4295256;33;31303;-87
2022/01/29 11:06:33;;;;;;;6.25;2.25;;;;;;;7.96;43.85;100981.88;4342041;32;32718;-87
2022/01/29 11:09:01;;;;;;;9.77;2.20;;;;;;;7.95;43.96;100977.50;4328684;33;32533;-87
2022/01/29 11:11:29;;;;;;;11.95;3.08;;;;;;;8.05;44.12;100973.00;4342079;32;33824;-87
2022/01/29 11:14:13;;;;;;;16.20;2.17;;;;;;;7.56;45.09;100972.81;4340762;32;32196;-86
2022/01/29 11:16:41;;;;;;;10.60;2.58;;;;;;;7.68;45.92;100975.25;4352455;32;33925;-86
2022/01/29 11:19:09;;;;;;;13.38;2.95;;;;;;;8.00;44.47;100973.94;4349451;32;32639;-87
2022/01/29 11:21:38;;;;;;;11.25;2.35;;;;;;;8.13;44.24;100970.25;4337353;32;32542;-87
2022/01/29 11:24:06;;;;;;;12.13;2.80;;;;;;;8.28;44.13;100954.22;4336435;32;31061;-85
2022/01/29 11:26:39;;;;;;;12.35;3.03;;;;;;;8.48;44.05;100947.81;4334773;32;33237;-86
2022/01/29 11:29:37;;;;;;;4.85;1.98;;;;;;;8.41;44.16;100937.38;4351167;32;33737;-87
2022/01/29 11:32:21;;;;;;;8.75;2.53;;;;;;;8.15;45.26;100939.53;4350149;32;32718;-87
2022/01/29 11:35:03;;;;;;;10.57;3.05;;;;;;;7.86;45.74;100946.09;4348412;32;32946;-86
2022/01/29 11:37:57;;;;;;;8.27;2.33;;;;;;;7.61;47.16;100928.94;4334854;32;34358;-86
2022/01/29 11:40:39;;;;;;;12.77;2.55;;;;;;;7.93;46.62;100934.59;4352848;32;32897;-86
2022/01/29 11:43:06;;;;;;;10.88;2.83;;;;;;;8.43;44.90;100924.19;4344657;32;33924;-87
2022/01/29 11:45:54;;;;;;;11.75;2.78;;;;;;;8.41;44.91;100920.72;4334428;32;32809;-86
2022/01/29 11:48:33;;;;;;;11.52;2.40;;;;;;;8.30;44.94;100912.94;4334869;32;32673;-87
2022/01/29 11:51:05;;;;;;;10.77;3.67;;;;;;;8.41;45.10;100912.84;4335716;32;33987;-87
2022/01/29 11:53:45;;;;;;;12.73;2.87;;;;;;;8.72;44.13;100910.50;4350742;32;33019;-87
2022/01/29 11:56:26;;;;;;;11.38;2.95;;;;;;;8.62;44.36;100906.31;4348150;32;33159;-87
2022/01/29 11:59:19;;;;;;;9.90;2.30;;;;;;;8.08;45.19;100898.44;4336871;32;33193;-86
2022/01/29 12:01:49;;;;;;;7.45;2.15;;;;;;;8.19;45.59;100891.22;4350263;32;33717;-88
2022/01/29 12:04:18;;;;;;;10.40;3.15;;;;;;;7.98;45.96;100881.06;4337396;32;33923;-88
2022/01/29 12:07:18;;;;;;;14.63;3.45;;;;;;;8.20;45.69;100898.22;4338642;32;33018;-88